createdAt,value
2022-10-01T00:00:26.503Z,83.10
2022-10-01T00:03:18.611Z,83.32
2022-10-01T00:05:59.003Z,83.62
2022-10-01T00:08:31.487Z,83.53
2022-10-01T00:11:08.053Z,83.52
2022-10-01T00:13:39.618Z,83.80
2022-10-01T00:16:13.569Z,83.78
2022-10-01T00:18:47.062Z,83.95
2022-10-01T00:21:20.350Z,83.96
2022-10-01T00:23:56.595Z,83.97
2022-10-01T00:26:30.737Z,83.50
2022-10-01T00:29:04.777Z,83.58
2022-10-01T00:31:36.702Z,83.46
2022-10-01T00:34:08.452Z,83.63
2022-10-01T00:36:38.494Z,83.50
2022-10-01T00:39:10.438Z,83.45
2022-10-01T00:41:42.821Z,83.37
2022-10-01T00:44:36.016Z,83.30
2022-10-01T00:47:20.475Z,83.55
2022-10-01T00:49:59.338Z,83.36
2022-10-01T00:52:36.193Z,83.39
2022-10-01T00:55:12.894Z,83.44
2022-10-01T00:57:46.210Z,83.27
2022-10-01T01:00:17.765Z,83.38
2022-10-01T01:02:49.346Z,83.30
2022-10-01T01:05:19.805Z,83.37
2022-10-01T01:07:54.523Z,83.46
2022-10-01T01:10:31.308Z,83.52
2022-10-01T01:13:18.138Z,83.29
2022-10-01T01:15:59.347Z,83.43
2022-10-01T01:18:36.095Z,83.49
2022-10-01T01:21:17.672Z,83.59
2022-10-01T01:24:10.372Z,83.55
2022-10-01T01:26:54.113Z,83.45
2022-10-01T01:29:31.064Z,83.51
2022-10-01T01:32:13.979Z,83.65
2022-10-01T01:34:52.139Z,83.54
2022-10-01T01:37:27.557Z,83.37
2022-10-01T01:40:03.553Z,83.22
2022-10-01T01:42:37.951Z,83.11
2022-10-01T01:45:13.690Z,83.27
2022-10-01T01:47:46.697Z,83.36
2022-10-01T01:50:19.756Z,83.15
2022-10-01T01:52:51.582Z,83.29
2022-10-01T01:55:25.554Z,83.26
2022-10-01T01:57:58.829Z,83.48
2022-10-01T02:00:30.711Z,83.48
2022-10-01T02:03:02.819Z,83.53
2022-10-01T02:05:43.902Z,83.36
2022-10-01T02:08:31.134Z,83.28
2022-10-01T02:11:12.666Z,83.17
2022-10-01T02:14:00.133Z,82.98
2022-10-01T02:16:36.198Z,83.08
2022-10-01T02:19:19.448Z,83.00
2022-10-01T02:22:00.866Z,83.11
2022-10-01T02:24:42.505Z,83.18
2022-10-01T02:27:14.815Z,83.41
2022-10-01T02:29:49.829Z,83.39
2022-10-01T02:32:22.978Z,83.32
2022-10-01T02:34:55.867Z,83.23
2022-10-01T02:37:37.209Z,83.40
2022-10-01T02:40:15.886Z,83.32
2022-10-01T02:42:51.012Z,83.29
2022-10-01T02:45:25.795Z,83.38
2022-10-01T02:48:02.657Z,83.51
2022-10-01T02:50:39.907Z,83.21
2022-10-01T02:53:18.306Z,83.12
2022-10-01T02:55:51.682Z,83.20
2022-10-01T02:58:23.513Z,83.24
2022-10-01T03:00:55.001Z,83.37
2022-10-01T03:03:27.410Z,83.45
2022-10-01T03:05:58.880Z,83.54
2022-10-01T03:08:31.726Z,83.58
2022-10-01T03:11:03.202Z,83.39
2022-10-01T03:13:34.427Z,83.53
2022-10-01T03:16:06.084Z,83.64
2022-10-01T03:18:37.599Z,83.52
2022-10-01T03:21:07.607Z,83.48
2022-10-01T03:23:39.120Z,84.04
2022-10-01T03:26:09.099Z,84.12
2022-10-01T03:28:40.572Z,84.04
2022-10-01T03:31:11.301Z,83.77
2022-10-01T03:33:43.067Z,84.11
2022-10-01T03:36:14.618Z,84.00
2022-10-01T03:38:44.620Z,83.87
2022-10-01T03:41:16.118Z,83.75
2022-10-01T03:43:46.105Z,83.82
2022-10-01T03:46:18.082Z,84.09
2022-10-01T03:48:50.630Z,84.18
2022-10-01T03:51:22.110Z,84.41
2022-10-01T03:53:52.099Z,84.44
2022-10-01T03:56:23.980Z,84.61
2022-10-01T03:58:55.808Z,84.35
2022-10-01T04:01:28.141Z,84.37
2022-10-01T04:04:00.089Z,84.35
2022-10-01T04:06:31.636Z,84.46
2022-10-01T04:09:01.712Z,84.50
2022-10-01T04:11:33.397Z,84.51
2022-10-01T04:14:05.219Z,84.11
2022-10-01T04:16:37.052Z,84.03
2022-10-01T04:19:08.554Z,84.18
2022-10-01T04:21:40.200Z,84.41
2022-10-01T04:24:12.045Z,84.82
2022-10-01T04:26:41.977Z,84.71
2022-10-01T04:29:13.459Z,84.44
2022-10-01T04:31:43.530Z,84.54
2022-10-01T04:34:14.985Z,84.79
2022-10-01T04:36:46.760Z,84.75
2022-10-01T04:39:18.468Z,84.77
2022-10-01T04:41:49.966Z,84.82
2022-10-01T04:44:21.384Z,84.79
2022-10-01T04:46:52.845Z,84.85
2022-10-01T04:49:22.838Z,84.85
2022-10-01T04:51:54.244Z,84.99
2022-10-01T04:54:25.730Z,84.99
2022-10-01T04:56:58.301Z,84.78
2022-10-01T04:59:31.801Z,84.94
2022-10-01T05:02:03.629Z,84.69
2022-10-01T05:04:35.074Z,84.49
2022-10-01T05:07:07.010Z,84.47
2022-10-01T05:09:38.444Z,84.61
2022-10-01T05:12:09.920Z,84.48
2022-10-01T05:14:39.881Z,84.21
2022-10-01T05:17:11.294Z,84.12
2022-10-01T05:19:42.750Z,84.31
2022-10-01T05:22:14.457Z,83.86
2022-10-01T05:24:45.886Z,83.92
2022-10-01T05:27:17.325Z,83.91
2022-10-01T05:29:49.015Z,83.73
2022-10-01T05:32:20.687Z,83.94
2022-10-01T05:34:53.728Z,84.02
2022-10-01T05:37:25.361Z,83.99
2022-10-01T05:39:55.337Z,84.20
2022-10-01T05:42:26.872Z,84.36
2022-10-01T05:44:56.864Z,84.43
2022-10-01T05:47:28.336Z,84.51
2022-10-01T05:49:59.979Z,84.46
2022-10-01T05:52:31.386Z,84.51
2022-10-01T05:55:02.836Z,84.30
2022-10-01T05:57:33.218Z,84.39
2022-10-01T06:00:05.639Z,84.62
2022-10-01T06:02:43.632Z,84.50
2022-10-01T06:05:15.309Z,84.44
2022-10-01T06:07:47.102Z,84.58
2022-10-01T06:10:18.954Z,84.59
2022-10-01T06:12:50.512Z,84.42
2022-10-01T06:15:20.465Z,84.32
2022-10-01T06:17:51.863Z,84.52
2022-10-01T06:20:24.137Z,84.32
2022-10-01T06:22:59.831Z,84.27
2022-10-01T06:25:31.635Z,84.39
2022-10-01T06:28:05.837Z,84.79
2022-10-01T06:30:39.409Z,84.72
2022-10-01T06:33:12.620Z,84.66
2022-10-01T06:35:45.764Z,84.77
2022-10-01T06:38:19.812Z,84.97
2022-10-01T06:40:55.861Z,85.26
2022-10-01T06:43:30.057Z,85.46
2022-10-01T06:46:03.909Z,85.73
2022-10-01T06:48:36.513Z,86.00
2022-10-01T06:51:08.678Z,86.04
2022-10-01T06:53:40.202Z,86.08
2022-10-01T06:56:10.336Z,85.81
2022-10-01T06:58:42.540Z,85.69
2022-10-01T07:01:14.227Z,85.33
2022-10-01T07:03:45.790Z,85.18
2022-10-01T07:06:17.253Z,85.27
2022-10-01T07:08:49.318Z,85.52
2022-10-01T07:11:21.209Z,85.69
2022-10-01T07:13:54.902Z,85.75
2022-10-01T07:16:26.607Z,85.64
2022-10-01T07:18:56.657Z,85.72
2022-10-01T07:21:28.179Z,85.99
2022-10-01T07:24:00.040Z,85.60
2022-10-01T07:26:30.063Z,85.44
2022-10-01T07:29:01.704Z,85.44
2022-10-01T07:31:33.678Z,84.98
2022-10-01T07:34:05.377Z,84.85
2022-10-01T07:36:36.821Z,85.18
2022-10-01T07:39:06.788Z,84.91
2022-10-01T07:41:38.293Z,85.39
2022-10-01T07:44:08.371Z,85.45
2022-10-01T07:46:40.714Z,85.43
2022-10-01T07:49:12.866Z,85.49
2022-10-01T07:51:44.482Z,85.40
2022-10-01T07:54:16.192Z,85.05
2022-10-01T07:56:48.232Z,85.40
2022-10-01T07:59:19.817Z,85.49
2022-10-01T08:01:51.791Z,84.92
2022-10-01T08:04:41.387Z,85.09
2022-10-01T08:07:12.866Z,85.08
2022-10-01T08:09:43.001Z,85.12
2022-10-01T08:12:14.452Z,85.27
2022-10-01T08:14:44.437Z,85.28
2022-10-01T08:17:15.913Z,85.37
2022-10-01T08:19:47.474Z,85.08
2022-10-01T08:22:17.566Z,84.72
2022-10-01T08:24:48.974Z,84.67
2022-10-01T08:27:19.071Z,84.61
2022-10-01T08:29:50.638Z,84.53
2022-10-01T08:32:23.266Z,84.16
2022-10-01T08:34:57.596Z,83.62
2022-10-01T08:37:30.275Z,83.68
2022-10-01T08:40:01.952Z,83.59
2022-10-01T08:42:52.161Z,83.77
2022-10-01T08:45:27.123Z,83.87
2022-10-01T08:48:06.330Z,83.84
2022-10-01T08:50:47.800Z,84.03
2022-10-01T08:53:29.220Z,83.67
2022-10-01T08:56:02.710Z,83.66
2022-10-01T08:58:42.086Z,83.68
2022-10-01T09:01:14.141Z,83.89
2022-10-01T09:03:45.721Z,83.71
2022-10-01T09:06:19.534Z,83.60
2022-10-01T09:09:10.025Z,83.53
2022-10-01T09:11:59.531Z,83.81
2022-10-01T09:14:51.133Z,84.02
2022-10-01T09:17:32.665Z,83.81
2022-10-01T09:20:08.633Z,83.70
2022-10-01T09:22:45.437Z,83.47
2022-10-01T09:25:23.080Z,83.54
2022-10-01T09:28:01.893Z,83.58
2022-10-01T09:30:36.636Z,83.88
2022-10-01T09:33:16.587Z,83.54
2022-10-01T09:35:54.656Z,83.37
2022-10-01T09:38:34.919Z,83.45
2022-10-01T09:41:06.539Z,83.15
2022-10-01T09:43:41.290Z,82.74
2022-10-01T09:46:17.522Z,82.90
2022-10-01T09:48:57.463Z,82.87
2022-10-01T09:51:39.421Z,82.68
2022-10-01T09:54:17.457Z,82.40
2022-10-01T09:56:54.902Z,82.69
2022-10-01T09:59:31.310Z,82.47
2022-10-01T10:02:05.980Z,82.78
2022-10-01T10:04:37.599Z,82.72
2022-10-01T10:07:09.216Z,82.62
2022-10-01T10:09:41.446Z,82.92
2022-10-01T10:12:29.332Z,82.82
2022-10-01T10:15:09.971Z,82.64
2022-10-01T10:17:44.233Z,82.75
2022-10-01T10:20:25.944Z,82.53
2022-10-01T10:23:08.343Z,82.08
2022-10-01T10:25:39.964Z,82.07
2022-10-01T10:28:19.729Z,81.99
2022-10-01T10:30:53.713Z,82.39
2022-10-01T10:33:27.094Z,81.81
2022-10-01T10:36:05.494Z,81.30
2022-10-01T10:38:37.454Z,81.40
2022-10-01T10:41:19.587Z,81.28
2022-10-01T10:43:51.339Z,80.93
2022-10-01T10:46:31.442Z,80.59
2022-10-01T10:49:09.295Z,79.84
2022-10-01T10:51:53.542Z,79.78
2022-10-01T10:54:29.382Z,79.49
2022-10-01T10:57:03.221Z,79.08
2022-10-01T10:59:35.775Z,79.06
2022-10-01T11:02:16.677Z,78.82
2022-10-01T11:04:49.273Z,79.08
2022-10-01T11:07:25.250Z,79.05
2022-10-01T11:10:10.232Z,78.76
2022-10-01T11:12:56.934Z,78.09
2022-10-01T11:15:48.174Z,77.78
2022-10-01T11:18:43.928Z,77.20
2022-10-01T11:21:29.239Z,77.13
2022-10-01T11:24:14.333Z,77.16
2022-10-01T11:26:55.349Z,76.94
2022-10-01T11:29:38.737Z,77.31
2022-10-01T11:32:19.861Z,76.88
2022-10-01T11:35:03.721Z,76.86
2022-10-01T11:37:47.615Z,77.13
2022-10-01T11:40:25.494Z,77.02
2022-10-01T11:43:04.421Z,77.22
2022-10-01T11:45:42.758Z,76.80
2022-10-01T11:48:24.114Z,76.48
2022-10-01T11:51:01.239Z,76.77
2022-10-01T11:53:38.769Z,76.54
2022-10-01T11:56:37.321Z,75.95
2022-10-01T11:59:17.632Z,75.73
2022-10-01T12:01:54.698Z,76.06
2022-10-01T12:04:34.118Z,76.48
2022-10-01T12:07:13.110Z,76.07
2022-10-01T12:09:58.082Z,76.55
2022-10-01T12:12:35.205Z,76.85
2022-10-01T12:15:16.425Z,76.52
2022-10-01T12:17:53.833Z,76.69
2022-10-01T12:20:32.388Z,76.58
2022-10-01T12:23:09.140Z,76.15
2022-10-01T12:25:49.177Z,76.31
2022-10-01T12:28:24.532Z,76.44
2022-10-01T12:31:04.063Z,76.39
2022-10-01T12:34:01.914Z,76.71
2022-10-01T12:36:45.156Z,76.65
2022-10-01T12:39:34.555Z,76.44
2022-10-01T12:42:19.689Z,76.54
2022-10-01T12:45:06.213Z,76.49
2022-10-01T12:47:45.840Z,76.03
2022-10-01T12:50:27.877Z,76.26
2022-10-01T12:53:17.827Z,76.49
2022-10-01T12:56:01.368Z,76.27
2022-10-01T12:59:03.920Z,76.12
2022-10-01T13:01:55.806Z,76.41
2022-10-01T13:04:56.631Z,76.35
2022-10-01T13:07:37.453Z,76.44
2022-10-01T13:10:23.142Z,76.39
2022-10-01T13:13:02.978Z,76.07
2022-10-01T13:15:37.893Z,76.22
2022-10-01T13:18:20.701Z,76.28
2022-10-01T13:21:01.858Z,75.83
2022-10-01T13:23:41.563Z,75.78
2022-10-01T13:26:17.453Z,75.53
2022-10-01T13:29:01.573Z,76.09
2022-10-01T13:31:39.573Z,75.78
2022-10-01T13:34:39.073Z,75.64
2022-10-01T13:37:16.529Z,76.12
2022-10-01T13:39:48.620Z,76.44
2022-10-01T13:42:26.078Z,76.45
2022-10-01T13:45:00.520Z,76.37
2022-10-01T13:47:33.061Z,76.56
2022-10-01T13:50:08.169Z,76.52
2022-10-01T13:52:39.914Z,76.50
2022-10-01T13:55:28.674Z,76.44
2022-10-01T13:58:08.218Z,76.56
2022-10-01T14:00:50.297Z,76.97
2022-10-01T14:03:39.897Z,76.49
2022-10-01T14:06:19.348Z,76.94
2022-10-01T14:08:55.145Z,77.20
2022-10-01T14:11:47.866Z,77.11
2022-10-01T14:14:46.829Z,77.02
2022-10-01T14:17:22.818Z,77.23
2022-10-01T14:19:54.737Z,77.08
2022-10-01T14:22:36.503Z,77.03
2022-10-01T14:25:20.938Z,77.23
2022-10-01T14:28:08.319Z,77.38
2022-10-01T14:30:46.872Z,77.51
2022-10-01T14:33:37.114Z,77.42
2022-10-01T14:36:16.546Z,77.56
2022-10-01T14:38:48.330Z,77.55
2022-10-01T14:41:26.939Z,77.53
2022-10-01T14:43:58.384Z,77.55
2022-10-01T14:46:28.430Z,77.89
2022-10-01T14:49:00.849Z,78.54
2022-10-01T14:51:33.076Z,78.64
2022-10-01T14:54:04.598Z,78.40
2022-10-01T14:56:37.938Z,78.10
2022-10-01T14:59:17.175Z,78.25
2022-10-01T15:02:00.213Z,78.43
2022-10-01T15:04:31.760Z,78.46
2022-10-01T15:07:17.160Z,78.30
2022-10-01T15:09:49.918Z,78.31
2022-10-01T15:12:24.223Z,78.24
2022-10-01T15:14:56.899Z,78.23
2022-10-01T15:17:29.648Z,78.21
2022-10-01T15:20:01.293Z,77.92
2022-10-01T15:22:34.001Z,77.90
2022-10-01T15:25:06.462Z,78.10
2022-10-01T15:27:41.739Z,77.82
2022-10-01T15:30:19.160Z,78.14
2022-10-01T15:32:51.496Z,78.15
2022-10-01T15:35:24.611Z,78.24
2022-10-01T15:38:00.529Z,78.29
2022-10-01T15:40:35.279Z,78.50
2022-10-01T15:43:23.519Z,78.24
2022-10-01T15:46:28.896Z,78.35
2022-10-01T15:49:18.887Z,78.36
2022-10-01T15:52:15.390Z,78.49
2022-10-01T15:54:48.474Z,78.38
2022-10-01T15:57:22.732Z,78.24
2022-10-01T15:59:57.789Z,78.44
2022-10-01T16:02:32.899Z,78.61
2022-10-01T16:05:08.985Z,78.56
2022-10-01T16:07:40.521Z,78.68
2022-10-01T16:10:32.316Z,78.76
2022-10-01T16:13:36.311Z,78.81
2022-10-01T16:16:18.597Z,79.10
2022-10-01T16:18:56.254Z,78.92
2022-10-01T16:21:28.287Z,79.00
2022-10-01T16:23:59.839Z,79.18
2022-10-01T16:26:37.797Z,79.06
2022-10-01T16:29:25.139Z,79.16
2022-10-01T16:31:58.235Z,79.19
2022-10-01T16:34:29.705Z,79.21
2022-10-01T16:36:59.772Z,79.26
2022-10-01T16:39:31.469Z,79.67
2022-10-01T16:42:22.676Z,79.70
2022-10-01T16:44:53.232Z,79.99
2022-10-01T16:47:24.658Z,80.36
2022-10-01T16:49:54.663Z,80.30
2022-10-01T16:52:26.544Z,80.70
2022-10-01T16:54:58.061Z,80.42
2022-10-01T16:57:29.539Z,80.80
2022-10-01T16:59:59.572Z,80.53
2022-10-01T17:02:31.074Z,80.78
2022-10-01T17:05:02.581Z,80.76
2022-10-01T17:07:33.446Z,80.69
2022-10-01T17:10:06.383Z,80.90
2022-10-01T17:12:37.848Z,80.93
2022-10-01T17:15:13.062Z,80.85
2022-10-01T17:17:44.851Z,80.97
2022-10-01T17:20:16.459Z,80.96
2022-10-01T17:22:48.551Z,80.91
2022-10-01T17:25:21.836Z,81.04
2022-10-01T17:27:53.342Z,80.98
2022-10-01T17:30:25.111Z,80.89
2022-10-01T17:32:56.877Z,80.74
2022-10-01T17:35:29.543Z,80.99
2022-10-01T17:38:01.204Z,80.72
2022-10-01T17:40:32.678Z,80.61
2022-10-01T17:43:02.661Z,80.76
2022-10-01T17:45:34.167Z,80.98
2022-10-01T17:48:05.983Z,81.06
2022-10-01T17:50:43.671Z,80.98
2022-10-01T17:53:15.642Z,81.08
2022-10-01T17:55:47.258Z,80.92
2022-10-01T17:58:19.735Z,80.90
2022-10-01T18:00:51.420Z,80.89
2022-10-01T18:03:23.444Z,81.15
2022-10-01T18:06:03.588Z,81.15
2022-10-01T18:08:54.281Z,81.01
2022-10-01T18:11:28.834Z,80.96
2022-10-01T18:14:00.521Z,80.97
2022-10-01T18:16:32.123Z,80.67
2022-10-01T18:21:56.938Z,80.95
2022-10-01T18:24:28.929Z,80.94
2022-10-01T18:27:00.409Z,81.04
2022-10-01T18:29:31.897Z,80.89
2022-10-01T18:32:02.789Z,80.87
2022-10-01T18:34:40.745Z,80.70
2022-10-01T18:37:23.359Z,80.69
2022-10-01T18:40:01.123Z,78.57
2022-10-01T18:42:42.515Z,78.15
2022-10-01T18:45:19.467Z,78.07
2022-10-01T18:48:03.833Z,77.89
2022-10-01T18:50:44.548Z,78.05
2022-10-01T18:53:29.174Z,77.99
2022-10-01T18:56:29.190Z,78.14
2022-10-01T18:59:15.701Z,78.12
2022-10-01T19:01:54.796Z,78.08
2022-10-01T19:04:51.777Z,78.47
2022-10-01T19:07:40.866Z,78.28
2022-10-01T19:10:23.980Z,78.30
2022-10-01T19:13:06.548Z,78.71
2022-10-01T19:15:50.801Z,78.63
2022-10-01T19:18:38.507Z,78.37
2022-10-01T19:21:20.720Z,78.35
2022-10-01T19:24:20.635Z,78.28
2022-10-01T19:27:01.504Z,78.74
2022-10-01T19:29:46.697Z,78.95
2022-10-01T19:32:22.487Z,79.09
2022-10-01T19:34:59.053Z,79.07
2022-10-01T19:37:37.649Z,78.95
2022-10-01T19:40:20.470Z,79.07
2022-10-01T19:43:00.105Z,79.27
2022-10-01T19:45:44.236Z,79.26
2022-10-01T19:48:22.383Z,79.36
2022-10-01T19:50:59.346Z,79.46
2022-10-01T19:53:37.182Z,79.60
2022-10-01T19:56:14.744Z,79.76
2022-10-01T19:58:47.517Z,79.78
2022-10-01T20:01:22.345Z,79.76
2022-10-01T20:04:00.184Z,79.79
2022-10-01T20:06:34.757Z,79.91
2022-10-01T20:09:16.838Z,79.66
2022-10-01T20:11:54.779Z,79.59
2022-10-01T20:14:59.650Z,79.52
2022-10-01T20:17:40.417Z,79.87
2022-10-01T20:20:18.785Z,79.65
2022-10-01T20:23:03.340Z,79.38
2022-10-01T20:25:45.937Z,79.66
2022-10-01T20:28:24.923Z,79.91
2022-10-01T20:31:08.939Z,79.94
2022-10-01T20:33:51.842Z,80.12
2022-10-01T20:36:34.041Z,80.16
2022-10-01T20:39:13.170Z,80.24
2022-10-01T20:41:47.847Z,80.21
2022-10-01T20:44:23.479Z,80.26
2022-10-01T20:47:03.139Z,80.36
2022-10-01T20:49:39.279Z,80.61
2022-10-01T20:52:18.939Z,80.58
2022-10-01T20:54:57.498Z,80.44
2022-10-01T20:57:34.454Z,80.55
2022-10-01T21:00:08.970Z,80.67
2022-10-01T21:02:45.003Z,80.73
2022-10-01T21:05:23.394Z,80.77
2022-10-01T21:08:00.499Z,81.03
2022-10-01T21:10:38.773Z,80.95
2022-10-01T21:13:16.892Z,81.06
2022-10-01T21:15:58.559Z,81.16
2022-10-01T21:18:36.322Z,81.39
2022-10-01T21:21:20.124Z,81.82
2022-10-01T21:24:05.942Z,81.74
2022-10-01T21:26:49.732Z,81.96
2022-10-01T21:29:39.934Z,81.88
2022-10-01T21:32:23.403Z,81.74
2022-10-01T21:35:02.427Z,82.00
2022-10-01T21:37:38.753Z,81.82
2022-10-01T21:40:24.925Z,81.99
2022-10-01T21:43:06.951Z,81.97
2022-10-01T21:45:48.611Z,81.94
2022-10-01T21:48:25.605Z,81.98
2022-10-01T21:51:03.576Z,82.26
2022-10-01T21:54:03.500Z,82.24
2022-10-01T21:56:54.976Z,82.43
2022-10-01T21:59:47.558Z,82.41
2022-10-01T22:02:31.112Z,82.50
2022-10-01T22:05:12.266Z,82.34
2022-10-01T22:07:52.047Z,82.40
2022-10-01T22:10:28.445Z,82.53
2022-10-01T22:13:04.204Z,82.43
2022-10-01T22:15:40.497Z,82.40
2022-10-01T22:18:19.474Z,82.47
2022-10-01T22:20:52.599Z,82.40
2022-10-01T22:23:25.613Z,82.46
2022-10-01T22:26:02.125Z,82.36
2022-10-01T22:28:39.854Z,82.32
2022-10-01T22:31:16.790Z,82.62
2022-10-01T22:33:54.211Z,82.41
2022-10-01T22:36:32.648Z,82.56
2022-10-01T22:39:08.566Z,82.72
2022-10-01T22:41:45.879Z,82.79
2022-10-01T22:44:19.925Z,82.51
2022-10-01T22:47:21.538Z,82.46
2022-10-01T22:50:11.947Z,82.44
2022-10-01T22:52:52.685Z,82.55
2022-10-01T22:55:31.902Z,82.49
2022-10-01T22:58:14.432Z,82.55
2022-10-01T23:00:52.351Z,82.58
2022-10-01T23:03:35.361Z,82.65
2022-10-01T23:06:12.328Z,82.63
2022-10-01T23:08:50.047Z,82.56
2022-10-01T23:11:28.004Z,82.83
2022-10-01T23:14:09.106Z,83.01
2022-10-01T23:16:51.503Z,83.04
2022-10-01T23:19:36.570Z,82.97
2022-10-01T23:22:15.613Z,82.93
2022-10-01T23:25:04.582Z,82.84
2022-10-01T23:27:48.286Z,82.76
2022-10-01T23:30:21.614Z,82.60
2022-10-01T23:33:20.853Z,82.65
2022-10-01T23:36:05.126Z,82.64
2022-10-01T23:38:53.402Z,82.63
2022-10-01T23:41:31.941Z,82.76
2022-10-01T23:44:10.013Z,82.72
2022-10-01T23:46:43.859Z,82.77
2022-10-01T23:49:18.390Z,82.97
2022-10-01T23:51:56.554Z,82.97
2022-10-01T23:54:34.103Z,83.01
2022-10-01T23:57:11.071Z,83.15
2022-10-01T23:59:45.757Z,83.36
